Time;durP1;ratioP1;P1;durP2;ratioP2;P2;SDS_P1;SDS_P2;PMS_P1;PMS_P2;Temp;Humidity;BMP_temperature;BMP_pressure;BME280_temperature;BME280_humidity;BME280_pressure;Samples;Min_cycle;Max_cycle;Signal;HPM_P1;HPM_P2
2021/03/20 00:01:43;;;;;;;107.25;48.13;;;;;;;3.19;67.51;100821.73;1820870;78;21001;-66
2021/03/20 00:04:11;;;;;;;98.55;45.63;;;;;;;3.21;67.38;100827.73;1820978;77;21194;-67
2021/03/20 00:06:43;;;;;;;105.95;43.65;;;;;;;3.19;67.43;100826.92;1820936;78;21048;-67
2021/03/20 00:09:15;;;;;;;104.35;38.75;;;;;;;3.16;67.38;100834.78;1820449;78;21026;-68
2021/03/20 00:13:35;;;;;;;83.15;30.80;;;;;;;3.14;66.77;100826.20;1816074;79;22358;-68
2021/03/20 00:16:03;;;;;;;78.40;30.92;;;;;;;3.08;66.32;100822.47;1789147;80;20943;-69
2021/03/20 00:18:31;;;;;;;76.00;31.73;;;;;;;3.09;65.94;100822.44;1788854;80;21370;-71
2021/03/20 00:20:59;;;;;;;70.90;32.45;;;;;;;3.11;65.52;100818.48;1720993;83;21046;-68
2021/03/20 00:23:27;;;;;;;81.47;34.15;;;;;;;3.08;65.47;100825.89;1724519;83;21560;-70
2021/03/20 00:25:57;;;;;;;74.67;33.23;;;;;;;3.09;65.42;100821.56;1721059;83;21038;-68
2021/03/20 00:28:27;;;;;;;75.85;32.35;;;;;;;3.08;65.29;100823.31;1724532;83;20967;-68
2021/03/20 00:31:01;;;;;;;81.42;36.85;;;;;;;3.08;65.34;100821.17;1721101;83;21207;-70
2021/03/20 00:33:29;;;;;;;82.82;37.98;;;;;;;3.08;65.48;100818.12;1724459;83;21039;-68
2021/03/20 00:35:57;;;;;;;82.78;36.17;;;;;;;3.10;66.02;100817.64;1721118;83;21488;-68
2021/03/20 00:38:28;;;;;;;71.65;35.45;;;;;;;3.14;65.92;100821.47;1724417;83;20999;-70
2021/03/20 00:40:56;;;;;;;73.05;32.80;;;;;;;3.15;66.30;100818.81;1721061;83;20963;-69
2021/03/20 00:43:25;;;;;;;81.28;34.70;;;;;;;3.19;66.67;100815.71;1724428;83;21224;-69
2021/03/20 00:45:53;;;;;;;80.60;31.45;;;;;;;3.22;66.92;100822.94;1720985;83;20955;-69
2021/03/20 00:48:25;;;;;;;61.63;24.95;;;;;;;3.25;67.21;100822.88;1724479;83;20952;-68
2021/03/20 00:50:53;;;;;;;43.90;14.65;;;;;;;3.35;66.25;100825.22;1721082;83;21498;-71
2021/03/20 00:53:22;;;;;;;51.02;14.33;;;;;;;3.37;64.31;100819.55;1724490;83;20912;-68
2021/03/20 00:55:52;;;;;;;67.20;31.37;;;;;;;3.34;63.44;100815.30;1721037;83;22400;-70
2021/03/20 00:58:34;;;;;;;81.45;34.38;;;;;;;3.35;64.63;100816.99;1724328;83;20987;-70
2021/03/20 01:01:17;;;;;;;70.75;33.70;;;;;;;3.37;65.63;100820.84;1721051;83;21512;-69
2021/03/20 01:03:47;;;;;;;58.02;20.20;;;;;;;3.37;66.19;100823.44;1724362;83;21082;-69
2021/03/20 01:06:19;;;;;;;55.48;18.12;;;;;;;3.36;65.04;100821.72;1692221;83;21081;-69
2021/03/20 01:08:48;;;;;;;61.33;22.60;;;;;;;3.32;64.21;100820.97;1723974;83;21233;-70
2021/03/20 01:11:16;;;;;;;73.85;32.00;;;;;;;3.29;64.38;100816.73;1721005;83;20947;-69
2021/03/20 01:13:46;;;;;;;73.90;32.85;;;;;;;3.28;64.96;100824.08;1696241;83;20960;-68
2021/03/20 01:16:15;;;;;;;76.72;35.23;;;;;;;3.28;65.86;100820.65;1749019;82;20908;-72
2021/03/20 01:18:44;;;;;;;96.72;45.63;;;;;;;3.29;66.53;100822.33;1749128;81;20947;-69
2021/03/20 01:21:12;;;;;;;102.27;50.83;;;;;;;3.30;66.92;100826.19;1749038;80;21814;-69
2021/03/20 01:23:41;;;;;;;99.77;47.17;;;;;;;3.32;67.15;100827.00;1748617;82;21477;-69
2021/03/20 01:26:10;;;;;;;50.05;15.65;;;;;;;3.29;67.30;100830.11;1748540;82;21003;-68
2021/03/20 01:28:39;;;;;;;56.53;14.10;;;;;;;3.28;66.33;100834.45;1748450;82;21075;-69
2021/03/20 01:31:09;;;;;;;53.45;14.68;;;;;;;3.27;65.54;100837.11;1748598;82;21574;-70
2021/03/20 01:33:37;;;;;;;62.43;21.23;;;;;;;3.22;65.22;100838.94;1748453;82;21393;-69
2021/03/20 01:36:08;;;;;;;53.30;17.07;;;;;;;3.19;65.69;100842.47;1748477;81;20968;-69
2021/03/20 01:38:36;;;;;;;58.30;23.05;;;;;;;3.17;66.06;100841.66;1748521;81;21366;-68
2021/03/20 01:41:08;;;;;;;58.80;19.65;;;;;;;3.15;66.17;100830.92;1748520;80;21315;-68
2021/03/20 01:43:37;;;;;;;54.98;18.52;;;;;;;3.14;66.69;100843.49;1748646;82;21053;-68
2021/03/20 01:46:51;;;;;;;43.58;15.95;;;;;;;3.09;66.88;100840.57;1748487;82;21821;-68
2021/03/20 01:49:27;;;;;;;53.38;14.05;;;;;;;3.05;67.12;100839.39;1748561;82;21398;-69
2021/03/20 01:52:21;;;;;;;47.53;14.53;;;;;;;2.98;67.79;100837.82;1748507;81;20968;-68
2021/03/20 01:55:14;;;;;;;41.08;14.70;;;;;;;2.95;68.25;100837.91;1748365;82;21098;-69
2021/03/20 01:57:55;;;;;;;49.13;15.75;;;;;;;2.94;68.89;100834.93;1748543;81;21003;-69
2021/03/20 02:00:35;;;;;;;58.50;17.98;;;;;;;2.94;69.32;100836.23;1748329;81;21850;-69
2021/03/20 02:03:09;;;;;;;41.53;15.45;;;;;;;2.93;69.57;100830.17;1748474;82;21382;-69
2021/03/20 02:05:37;;;;;;;56.08;17.57;;;;;;;2.93;69.90;100834.05;1748515;81;20956;-69
2021/03/20 02:08:07;;;;;;;51.88;17.60;;;;;;;2.92;70.09;100832.82;1748389;82;21362;-68
2021/03/20 02:10:37;;;;;;;48.75;16.93;;;;;;;2.89;70.30;100823.36;1748570;82;21365;-68
2021/03/20 02:13:31;;;;;;;51.08;15.35;;;;;;;2.89;70.44;100829.84;1759511;80;21263;-69
2021/03/20 02:16:19;;;;;;;45.75;14.70;;;;;;;2.87;70.70;100829.05;1702418;84;21480;-68
2021/03/20 02:19:19;;;;;;;50.63;16.10;;;;;;;2.86;71.05;100836.40;1768378;81;21417;-69
2021/03/20 02:22:04;;;;;;;37.17;14.50;;;;;;;2.84;71.38;100835.12;1702367;83;21083;-69
2021/03/20 02:25:15;;;;;;;50.85;15.30;;;;;;;2.84;71.58;100835.12;1702596;84;21469;-68
2021/03/20 02:28:10;;;;;;;56.65;19.07;;;;;;;2.84;71.69;100831.70;1768392;81;21429;-69
2021/03/20 02:31:08;;;;;;;52.50;17.00;;;;;;;2.78;71.80;100836.60;1671362;84;20999;-69
2021/03/20 02:33:50;;;;;;;54.90;16.85;;;;;;;2.68;71.99;100841.13;1702042;84;21561;-69
2021/03/20 02:36:42;;;;;;;42.55;16.02;;;;;;;2.62;72.22;100846.48;1767588;80;21019;-70
2021/03/20 02:39:18;;;;;;;42.80;17.57;;;;;;;2.54;72.50;100845.80;1664205;83;21066;-68
2021/03/20 02:41:51;;;;;;;44.95;15.30;;;;;;;2.46;72.81;100847.70;1768384;81;21375;-67
2021/03/20 02:44:28;;;;;;;45.70;15.15;;;;;;;2.41;73.16;100844.38;1768079;81;20999;-69
2021/03/20 02:47:02;;;;;;;45.75;17.48;;;;;;;2.36;73.50;100847.52;1701888;84;21524;-69
2021/03/20 02:49:46;;;;;;;;;;;;;;;2.33;73.94;100846.27;1770913;81;21023;-69
2021/03/20 02:52:34;;;;;;;48.80;16.55;;;;;;;2.36;74.18;100849.66;1768388;81;20164;-69
2021/03/20 02:55:17;;;;;;;51.48;17.98;;;;;;;2.42;74.19;100847.36;1702384;84;21812;-68
2021/03/20 02:58:02;;;;;;;51.30;17.82;;;;;;;2.44;74.14;100845.14;1768303;81;20943;-69
2021/03/20 03:00:52;;;;;;;39.35;17.90;;;;;;;2.45;74.17;100839.54;1768380;81;20995;-69
2021/03/20 03:03:22;;;;;;;47.88;18.25;;;;;;;2.46;74.14;100848.55;1702327;84;21043;-70
2021/03/20 03:05:58;;;;;;;51.42;18.37;;;;;;;2.45;74.27;100842.97;1702493;84;21438;-68
2021/03/20 03:08:39;;;;;;;53.52;16.87;;;;;;;2.44;74.43;100842.55;1768359;80;21371;-68
2021/03/20 03:11:21;;;;;;;49.50;19.57;;;;;;;2.45;74.59;100844.27;1768278;81;21066;-68
2021/03/20 03:13:57;;;;;;;57.48;17.57;;;;;;;2.44;74.58;100838.66;1702304;84;20964;-69
2021/03/20 03:16:34;;;;;;;56.08;17.85;;;;;;;2.39;74.65;100839.67;1702251;84;20965;-69
2021/03/20 03:19:10;;;;;;;63.25;20.43;;;;;;;2.31;74.79;100845.00;1702402;84;21378;-68
2021/03/20 03:21:42;;;;;;;47.88;18.73;;;;;;;2.22;74.98;100833.15;1746786;81;21382;-68
2021/03/20 03:24:12;;;;;;;58.17;17.27;;;;;;;2.19;75.20;100836.23;1702264;84;21044;-68
2021/03/20 03:26:41;;;;;;;53.33;18.55;;;;;;;2.18;75.47;100842.28;1768315;81;21055;-68
2021/03/20 03:29:17;;;;;;;62.78;18.57;;;;;;;2.18;75.77;100832.80;1702505;84;21055;-68
2021/03/20 03:32:15;;;;;;;51.92;18.45;;;;;;;2.20;75.79;100834.04;1768327;81;20901;-67
2021/03/20 03:35:05;;;;;;;48.70;18.45;;;;;;;2.21;75.80;100838.34;1702335;83;21375;-68
2021/03/20 03:38:00;;;;;;;64.03;19.87;;;;;;;2.22;75.81;100840.03;1702360;84;21528;-69
2021/03/20 03:40:56;;;;;;;48.63;17.47;;;;;;;2.22;75.89;100834.44;1684236;84;21047;-69
2021/03/20 03:43:24;;;;;;;60.50;18.20;;;;;;;2.24;75.63;100843.44;1702297;84;21707;-68
2021/03/20 03:45:53;;;;;;;40.70;15.63;;;;;;;2.22;75.79;100843.92;1768331;80;20956;-67
2021/03/20 03:48:22;;;;;;;42.40;15.75;;;;;;;2.17;75.78;100843.17;1768368;80;21449;-69
2021/03/20 03:50:51;;;;;;;42.23;15.90;;;;;;;2.11;75.94;100838.13;1702350;84;21481;-69
2021/03/20 03:53:26;;;;;;;45.50;17.57;;;;;;;2.06;76.17;100849.42;1768351;81;21007;-70
2021/03/20 03:55:58;;;;;;;53.80;17.82;;;;;;;2.04;76.23;100847.30;1768250;81;20948;-70
2021/03/20 03:58:35;;;;;;;52.55;19.45;;;;;;;2.03;76.36;100846.06;1768412;81;21457;-68
2021/03/20 04:01:23;;;;;;;48.10;18.62;;;;;;;2.00;76.36;100854.74;1765058;80;22309;-70
2021/03/20 04:04:05;;;;;;;46.35;17.98;;;;;;;1.96;76.41;100849.67;1701960;83;21015;-69
2021/03/20 04:06:57;;;;;;;48.08;17.37;;;;;;;1.94;76.48;100847.11;1680715;84;20960;-69
2021/03/20 04:09:46;;;;;;;57.73;18.40;;;;;;;1.93;76.65;100851.84;1702272;83;20949;-69
2021/03/20 04:12:25;;;;;;;49.48;17.02;;;;;;;1.95;76.93;100850.09;1768278;81;21066;-69
2021/03/20 04:15:21;;;;;;;49.67;18.55;;;;;;;1.95;76.97;100853.13;1768202;81;21382;-70
2021/03/20 04:18:16;;;;;;;56.48;18.98;;;;;;;1.94;77.01;100847.11;1768220;81;21039;-69
2021/03/20 04:20:52;;;;;;;65.45;19.30;;;;;;;1.91;77.13;100851.48;1768423;81;20936;-69
2021/03/20 04:23:34;;;;;;;42.58;16.75;;;;;;;1.86;77.21;100847.70;1768052;81;21122;-72
2021/03/20 04:26:33;;;;;;;48.65;20.25;;;;;;;1.85;77.33;100853.77;1768345;81;20928;-70
2021/03/20 04:29:11;;;;;;;41.75;17.55;;;;;;;1.80;77.43;100847.81;1768380;81;21218;-71
2021/03/20 04:31:56;;;;;;;38.63;17.25;;;;;;;1.77;77.51;100848.73;1702213;84;21023;-69
2021/03/20 04:34:44;;;;;;;47.65;17.00;;;;;;;1.76;77.66;100851.37;1702259;83;20944;-71
2021/03/20 04:37:19;;;;;;;39.70;17.55;;;;;;;1.76;77.96;100858.67;1675520;84;20944;-69
2021/03/20 04:39:52;;;;;;;45.50;15.45;;;;;;;1.80;78.24;100861.61;1702392;84;20960;-69
2021/03/20 04:42:28;;;;;;;46.75;16.87;;;;;;;1.82;78.12;100856.39;1702312;83;21383;-69
2021/03/20 04:44:59;;;;;;;53.40;19.30;;;;;;;1.82;78.27;100852.52;1702288;84;21517;-69
2021/03/20 04:47:28;;;;;;;39.92;18.42;;;;;;;1.88;78.50;100860.60;1747392;81;20956;-69
2021/03/20 04:50:06;;;;;;;51.45;18.30;;;;;;;1.91;78.28;100859.23;1768382;81;21049;-69
2021/03/20 04:52:43;;;;;;;60.25;19.37;;;;;;;1.89;78.18;100859.28;1759271;81;21521;-71
2021/03/20 04:55:11;;;;;;;56.70;21.65;;;;;;;1.89;78.23;100858.41;1746987;81;21501;-71
2021/03/20 04:57:54;;;;;;;42.30;17.98;;;;;;;1.91;78.22;100866.55;1702257;84;21019;-71
2021/03/20 05:00:34;;;;;;;64.15;23.70;;;;;;;1.93;78.20;100860.91;1702393;84;21008;-72
2021/03/20 05:03:25;;;;;;;49.63;21.30;;;;;;;1.89;78.34;100861.00;1768411;81;21482;-73
2021/03/20 05:06:02;;;;;;;55.17;21.10;;;;;;;1.89;78.71;100864.88;1702277;83;20916;-71
2021/03/20 05:08:41;;;;;;;55.23;21.57;;;;;;;1.93;78.55;100873.83;1768443;81;21433;-70
2021/03/20 05:11:17;;;;;;;44.25;21.20;;;;;;;1.96;78.48;100876.38;1768330;81;21524;-71
2021/03/20 05:14:09;;;;;;;44.15;19.92;;;;;;;1.94;78.26;100874.70;1768328;81;20892;-72
2021/03/20 05:16:50;;;;;;;45.25;20.90;;;;;;;1.87;78.33;100875.27;1702387;84;20948;-71
2021/03/20 05:19:20;;;;;;;53.02;21.15;;;;;;;1.85;78.64;100876.59;1747529;81;21066;-70
2021/03/20 05:21:50;;;;;;;51.00;20.35;;;;;;;1.90;78.79;100876.49;1768410;81;21386;-71
2021/03/20 05:24:34;;;;;;;48.38;20.97;;;;;;;1.92;78.59;100877.77;1768395;81;21029;-71
2021/03/20 05:27:03;;;;;;;49.50;20.72;;;;;;;1.92;78.89;100883.78;1767858;81;21027;-72
2021/03/20 05:29:31;;;;;;;49.65;23.32;;;;;;;1.94;78.55;100876.84;1702369;84;20980;-71
2021/03/20 05:32:01;;;;;;;60.85;25.32;;;;;;;1.91;78.63;100883.35;1702447;84;21008;-71
2021/03/20 05:34:40;;;;;;;48.17;22.60;;;;;;;1.91;78.63;100879.47;1768355;80;22829;-71
2021/03/20 05:37:11;;;;;;;47.23;22.45;;;;;;;1.89;78.51;100885.15;1702306;84;21047;-71
2021/03/20 05:39:39;;;;;;;48.20;24.25;;;;;;;1.89;78.52;100879.09;1702432;83;21025;-70
2021/03/20 05:42:18;;;;;;;52.65;23.98;;;;;;;1.91;78.78;100891.56;1768430;81;21469;-71
2021/03/20 05:45:04;;;;;;;53.63;24.47;;;;;;;1.97;79.07;100890.99;1702401;84;21043;-71
2021/03/20 05:48:03;;;;;;;47.88;24.15;;;;;;;2.07;78.79;100892.97;1702440;84;21778;-71
2021/03/20 05:51:08;;;;;;;54.23;25.00;;;;;;;2.13;78.51;100895.86;1702362;84;21482;-71
2021/03/20 05:53:56;;;;;;;49.53;25.05;;;;;;;2.12;78.18;100895.47;1768460;81;20964;-71
2021/03/20 05:56:55;;;;;;;49.48;24.90;;;;;;;2.04;78.17;100893.86;1702404;84;21103;-70
2021/03/20 05:59:27;;;;;;;52.33;27.40;;;;;;;1.98;78.19;100896.59;1657258;84;20971;-69
2021/03/20 06:02:19;;;;;;;51.77;24.80;;;;;;;1.95;78.23;100899.67;1702255;84;21422;-70
2021/03/20 06:05:38;;;;;;;46.02;25.75;;;;;;;1.95;78.48;100902.26;1702276;84;21051;-69
2021/03/20 06:08:46;;;;;;;44.33;24.72;;;;;;;1.97;78.44;100899.20;1618634;88;21071;-70
2021/03/20 06:11:56;;;;;;;47.23;24.95;;;;;;;1.95;78.62;100903.55;1618605;88;21004;-70
2021/03/20 06:15:02;;;;;;;48.55;24.82;;;;;;;1.95;78.63;100903.10;1645181;86;21576;-71
2021/03/20 06:17:53;;;;;;;45.38;24.65;;;;;;;1.95;78.56;100905.69;1618730;87;21359;-71
2021/03/20 06:20:51;;;;;;;44.27;24.45;;;;;;;1.92;78.53;100904.92;1640307;87;21053;-70
2021/03/20 06:24:12;;;;;;;46.08;25.92;;;;;;;1.92;78.78;100903.17;1847769;76;22803;-69
2021/03/20 06:26:40;;;;;;;48.23;23.22;;;;;;;1.91;78.71;100898.87;1817992;77;20907;-71
2021/03/20 06:29:33;;;;;;;43.48;23.22;;;;;;;1.94;78.63;100905.74;1818026;78;20927;-70
2021/03/20 06:32:15;;;;;;;47.73;24.10;;;;;;;1.93;78.70;100906.16;1817961;77;20998;-72
2021/03/20 06:35:01;;;;;;;47.95;21.75;;;;;;;1.92;78.84;100907.50;1817949;77;20895;-71
2021/03/20 06:37:32;;;;;;;49.13;22.25;;;;;;;1.95;79.05;100913.89;1817966;77;20998;-70
2021/03/20 06:40:18;;;;;;;40.35;22.13;;;;;;;1.96;78.95;100913.03;1787174;79;21018;-71
2021/03/20 06:42:46;;;;;;;42.00;21.93;;;;;;;1.98;79.02;100919.00;1817956;79;21371;-70
2021/03/20 06:45:26;;;;;;;42.48;21.10;;;;;;;2.01;79.00;100917.66;1786777;79;20946;-71
2021/03/20 06:48:17;;;;;;;37.78;22.37;;;;;;;2.02;78.93;100912.47;1817969;77;20934;-70
2021/03/20 06:50:54;;;;;;;39.75;22.58;;;;;;;2.08;78.79;100913.61;1768629;81;20961;-72
2021/03/20 06:54:03;;;;;;;42.13;20.17;;;;;;;2.16;78.54;100919.09;1758295;81;20981;-71
2021/03/20 06:56:36;;;;;;;41.58;21.05;;;;;;;2.18;78.38;100919.89;1758278;81;21187;-72
2021/03/20 06:59:11;;;;;;;38.70;17.32;;;;;;;2.19;78.37;100922.91;1758163;81;20953;-70
2021/03/20 07:01:57;;;;;;;40.40;21.12;;;;;;;2.20;78.47;100921.59;1758212;81;20977;-72
2021/03/20 07:04:31;;;;;;;41.05;21.60;;;;;;;2.27;78.46;100926.20;1758089;81;20957;-71
2021/03/20 07:07:43;;;;;;;49.88;24.20;;;;;;;2.35;78.33;100920.39;1758194;81;21073;-72
2021/03/20 07:10:23;;;;;;;45.80;23.87;;;;;;;2.43;78.17;100924.98;1758239;81;21811;-70
2021/03/20 07:13:14;;;;;;;45.88;22.45;;;;;;;2.50;77.26;100923.11;1758257;81;21625;-71
2021/03/20 07:15:45;;;;;;;52.80;23.47;;;;;;;2.46;77.16;100922.76;1758185;81;21010;-72
2021/03/20 07:18:30;;;;;;;42.33;18.87;;;;;;;2.45;77.25;100933.56;1758087;81;21152;-71
2021/03/20 07:21:00;;;;;;;42.27;20.97;;;;;;;2.48;77.43;100932.64;1758226;81;21372;-71
2021/03/20 07:23:28;;;;;;;49.35;19.62;;;;;;;2.53;77.39;100924.77;1757821;80;22706;-70
2021/03/20 07:26:08;;;;;;;58.30;21.90;;;;;;;2.56;77.44;100927.31;1810296;77;21563;-73
2021/03/20 07:28:37;;;;;;;43.28;20.52;;;;;;;2.57;77.11;100929.00;1817933;79;20899;-70
2021/03/20 07:31:09;;;;;;;47.20;22.05;;;;;;;2.57;76.90;100929.84;1817881;79;20930;-69
2021/03/20 07:33:43;;;;;;;41.35;21.60;;;;;;;2.57;76.90;100926.41;1817690;79;20922;-71
2021/03/20 07:36:36;;;;;;;35.13;19.17;;;;;;;2.56;76.88;100924.27;1817314;79;21361;-69
2021/03/20 07:39:26;;;;;;;45.70;20.80;;;;;;;2.54;76.85;100925.20;1817250;77;20935;-71
2021/03/20 07:42:05;;;;;;;35.95;16.87;;;;;;;2.55;76.90;100922.55;1817347;79;21369;-70
2021/03/20 07:45:19;;;;;;;35.83;17.50;;;;;;;2.57;76.80;100925.13;1817107;77;21468;-72
2021/03/20 07:48:00;;;;;;;33.35;17.57;;;;;;;2.52;77.02;100929.55;1817359;79;20923;-71
2021/03/20 07:50:44;;;;;;;32.15;18.77;;;;;;;2.58;77.35;100930.69;1817376;79;22482;-72
2021/03/20 07:53:20;;;;;;;30.27;16.57;;;;;;;2.62;77.07;100933.62;1817307;79;21033;-69
2021/03/20 07:56:15;;;;;;;35.15;16.60;;;;;;;2.61;76.76;100929.34;1817290;78;20990;-70
2021/03/20 07:58:53;;;;;;;27.82;15.95;;;;;;;2.56;76.75;100925.56;1817260;77;20950;-71
2021/03/20 08:01:25;;;;;;;30.15;16.45;;;;;;;2.51;76.77;100931.72;1787569;79;21418;-69
2021/03/20 08:03:57;;;;;;;34.85;16.60;;;;;;;2.46;77.06;100933.95;1817314;79;21252;-70
2021/03/20 08:06:45;;;;;;;26.15;14.53;;;;;;;2.46;77.35;100938.29;1817244;79;20934;-70
2021/03/20 08:09:24;;;;;;;36.15;16.52;;;;;;;2.48;77.52;100938.66;1817312;79;20927;-71
2021/03/20 08:12:04;;;;;;;35.70;17.92;;;;;;;2.55;77.54;100926.89;1817293;78;20978;-72
2021/03/20 08:14:40;;;;;;;34.83;15.78;;;;;;;2.61;77.46;100936.67;1817448;79;21452;-70
2021/03/20 08:17:17;;;;;;;34.53;16.30;;;;;;;2.71;77.16;100933.42;1817349;79;21435;-72
2021/03/20 08:19:46;;;;;;;32.65;15.25;;;;;;;2.76;76.90;100930.72;1817263;77;20950;-70
2021/03/20 08:22:39;;;;;;;26.62;14.23;;;;;;;2.80;76.94;100928.47;1816149;79;20943;-70
2021/03/20 08:25:29;;;;;;;21.97;13.38;;;;;;;2.84;76.43;100927.07;1812541;78;21053;-69
2021/03/20 08:28:03;;;;;;;26.73;11.40;;;;;;;2.92;76.54;100929.95;1812559;79;20926;-67
2021/03/20 08:30:53;;;;;;;24.65;11.18;;;;;;;3.02;76.43;100932.27;1812955;78;22353;-69
2021/03/20 08:34:08;;;;;;;27.27;14.60;;;;;;;3.07;76.01;100927.00;1812616;79;20998;-70
2021/03/20 08:37:14;;;;;;;26.60;14.10;;;;;;;3.03;75.53;100924.07;1812679;79;20947;-67
2021/03/20 08:40:16;;;;;;;23.10;13.58;;;;;;;2.97;75.40;100934.12;1812810;79;20914;-69
2021/03/20 08:43:12;;;;;;;28.80;16.05;;;;;;;2.95;75.76;100936.34;1812643;79;20959;-69
2021/03/20 08:46:06;;;;;;;21.30;14.33;;;;;;;2.98;75.83;100929.78;1812631;78;21119;-70
2021/03/20 08:49:02;;;;;;;30.68;13.88;;;;;;;2.99;75.65;100933.64;1812789;78;20939;-71
2021/03/20 08:51:39;;;;;;;33.40;13.70;;;;;;;3.00;75.40;100938.37;1793463;80;21442;-71
2021/03/20 08:54:28;;;;;;;22.02;13.43;;;;;;;3.04;75.64;100932.23;1812578;78;20936;-71
2021/03/20 08:57:37;;;;;;;33.67;16.70;;;;;;;3.14;75.13;100931.59;1812711;78;20939;-73
2021/03/20 09:00:20;;;;;;;37.05;18.55;;;;;;;3.24;75.11;100930.01;1812668;78;21813;-73
2021/03/20 09:02:48;;;;;;;29.07;15.72;;;;;;;3.35;74.59;100927.61;1812590;79;21014;-71
2021/03/20 09:05:25;;;;;;;28.85;16.15;;;;;;;3.42;74.27;100926.55;1812678;78;20923;-73
2021/03/20 09:08:34;;;;;;;33.55;18.37;;;;;;;3.45;74.05;100929.94;1812589;79;20987;-70
2021/03/20 09:11:23;;;;;;;35.80;19.05;;;;;;;3.49;73.63;100927.67;1783976;79;20990;-69
2021/03/20 09:14:06;;;;;;;37.15;17.45;;;;;;;3.53;73.69;100924.11;1812635;79;21876;-71
2021/03/20 09:16:43;;;;;;;30.37;15.85;;;;;;;3.59;73.09;100921.79;1812614;79;21046;-70
2021/03/20 09:19:27;;;;;;;38.53;18.27;;;;;;;3.65;73.13;100928.57;1812660;78;21436;-70
2021/03/20 09:22:00;;;;;;;25.95;17.98;;;;;;;3.69;72.61;100922.39;1787288;79;20923;-71
2021/03/20 09:24:28;;;;;;;28.73;17.57;;;;;;;3.66;72.29;100925.07;1793579;80;21340;-70
2021/03/20 09:26:59;;;;;;;32.17;17.10;;;;;;;3.70;72.36;100926.70;1812644;79;21425;-72
2021/03/20 09:29:31;;;;;;;30.80;18.23;;;;;;;3.72;72.25;100928.36;1793507;78;20945;-73
2021/03/20 09:32:12;;;;;;;28.47;16.25;;;;;;;3.77;72.38;100923.04;1812678;79;21014;-74
2021/03/20 09:34:45;;;;;;;25.32;15.80;;;;;;;3.86;71.74;100922.78;1812640;78;21010;-73
2021/03/20 09:37:22;;;;;;;45.52;23.55;;;;;;;3.91;71.71;100921.36;1812596;78;21006;-75
2021/03/20 09:39:55;;;;;;;37.98;21.07;;;;;;;3.92;71.42;100929.56;1812604;79;21635;-72
2021/03/20 09:42:32;;;;;;;26.77;17.65;;;;;;;3.90;71.23;100928.75;1812525;79;21009;-72
2021/03/20 09:45:15;;;;;;;29.45;17.40;;;;;;;3.86;71.15;100934.91;1812655;79;21006;-73
2021/03/20 09:47:56;;;;;;;25.62;17.02;;;;;;;3.79;71.29;100934.69;1811232;78;20975;-85
2021/03/20 09:50:32;;;;;;;26.02;16.65;;;;;;;3.69;71.28;100935.35;1812783;79;21461;-73
2021/03/20 09:53:14;;;;;;;26.70;16.82;;;;;;;3.63;71.69;100935.09;1812612;78;20971;-76
2021/03/20 09:55:51;;;;;;;35.48;21.50;;;;;;;3.56;71.69;100934.84;1812564;79;20978;-74
2021/03/20 09:58:25;;;;;;;57.70;29.02;;;;;;;3.59;71.92;100930.02;1812679;79;21456;-81
2021/03/20 10:00:59;;;;;;;37.17;21.20;;;;;;;3.63;71.60;100936.38;1812803;78;20930;-80
2021/03/20 10:03:46;;;;;;;34.67;18.65;;;;;;;3.65;71.74;100937.20;1812566;78;21010;-71
2021/03/20 10:06:39;;;;;;;26.35;16.52;;;;;;;3.65;71.92;100933.30;1812824;79;21332;-71
2021/03/20 10:09:19;;;;;;;29.70;17.42;;;;;;;3.62;71.78;100936.41;1812951;78;20935;-71
2021/03/20 10:11:59;;;;;;;27.90;18.05;;;;;;;3.61;71.97;100933.43;1812864;79;20939;-71
2021/03/20 10:14:35;;;;;;;31.82;20.35;;;;;;;3.57;71.85;100928.76;1813096;79;21345;-71
2021/03/20 10:17:22;;;;;;;30.12;17.92;;;;;;;3.57;72.24;100927.45;1813136;78;20927;-77
2021/03/20 10:20:10;;;;;;;30.40;19.37;;;;;;;3.59;72.32;100934.75;1790120;79;21365;-69
2021/03/20 10:22:49;;;;;;;23.07;17.30;;;;;;;3.57;72.31;100925.31;1768824;78;21077;-67
2021/03/20 10:25:18;;;;;;;41.75;19.45;;;;;;;3.54;72.60;100930.14;1762451;81;21029;-70
2021/03/20 10:27:54;;;;;;;25.08;18.67;;;;;;;3.52;72.69;100930.62;1817181;77;21317;-71
2021/03/20 10:30:25;;;;;;;28.12;17.65;;;;;;;3.51;72.83;100920.70;1817018;78;21017;-70
2021/03/20 10:33:10;;;;;;;32.03;17.92;;;;;;;3.53;72.91;100924.11;1817184;79;21355;-70
2021/03/20 10:35:38;;;;;;;;;;;;;;;3.52;72.91;100921.09;1819839;78;20950;-72
2021/03/20 10:38:25;;;;;;;28.57;20.80;;;;;;;3.50;72.91;100919.44;1817024;78;20441;-70
2021/03/20 10:41:08;;;;;;;27.00;20.35;;;;;;;3.49;73.44;100916.42;1817200;79;21010;-78
2021/03/20 10:43:47;;;;;;;35.28;22.37;;;;;;;3.53;73.58;100919.34;1816704;79;21049;-72
2021/03/20 10:46:23;;;;;;;28.95;19.15;;;;;;;3.60;73.68;100914.44;1817127;77;22233;-74
2021/03/20 10:48:54;;;;;;;33.85;20.37;;;;;;;3.64;73.62;100911.30;1817353;78;21322;-70
2021/03/20 10:51:25;;;;;;;33.33;20.85;;;;;;;3.63;73.48;100911.75;1817289;77;21005;-73
2021/03/20 10:53:57;;;;;;;32.42;18.57;;;;;;;3.67;73.85;100912.53;1788556;79;20986;-72
2021/03/20 10:56:35;;;;;;;21.15;15.98;;;;;;;3.71;73.52;100912.41;1817204;78;20879;-73
2021/03/20 10:59:18;;;;;;;26.35;18.52;;;;;;;3.77;73.50;100910.07;1817225;79;22182;-72
2021/03/20 11:01:46;;;;;;;25.10;16.95;;;;;;;3.77;73.29;100904.04;1817038;78;21475;-72
2021/03/20 11:04:31;;;;;;;24.67;15.15;;;;;;;3.81;73.17;100909.55;1817134;77;21054;-75
2021/03/20 11:07:01;;;;;;;26.90;15.88;;;;;;;3.85;72.34;100908.58;1817354;78;22149;-72
2021/03/20 11:09:31;;;;;;;24.30;17.07;;;;;;;3.79;72.17;100904.40;1817876;79;21006;-84
2021/03/20 11:12:24;;;;;;;27.05;17.62;;;;;;;3.76;72.30;100901.02;1817568;79;21193;-79
2021/03/20 11:14:59;;;;;;;30.62;18.05;;;;;;;3.72;72.35;100903.72;1817315;78;20978;-81
2021/03/20 11:17:32;;;;;;;28.47;17.75;;;;;;;3.73;72.31;100900.67;1817523;79;21484;-78
2021/03/20 11:20:19;;;;;;;26.40;16.48;;;;;;;3.73;72.30;100900.25;1817320;79;21014;-73
2021/03/20 11:22:48;;;;;;;30.10;15.68;;;;;;;3.76;72.35;100908.80;1817054;78;20926;-76
2021/03/20 11:25:39;;;;;;;20.57;16.37;;;;;;;3.77;72.60;100904.88;1812679;79;21194;-77
2021/03/20 11:28:34;;;;;;;28.75;16.42;;;;;;;3.82;72.77;100909.95;1806360;79;20939;-80
2021/03/20 11:31:03;;;;;;;24.65;17.25;;;;;;;3.88;73.18;100907.19;1813020;79;20978;-78
2021/03/20 11:33:35;;;;;;;21.50;17.02;;;;;;;3.95;72.60;100913.91;1812641;78;21005;-77
2021/03/20 11:36:07;;;;;;;22.85;18.20;;;;;;;4.02;72.78;100911.98;1812804;79;20936;-75
2021/03/20 11:38:35;;;;;;;27.45;17.57;;;;;;;4.12;72.47;100909.55;1788875;79;20927;-76
2021/03/20 11:41:10;;;;;;;28.27;17.40;;;;;;;4.20;72.24;100906.72;1812626;78;21002;-78
2021/03/20 11:43:59;;;;;;;28.30;18.05;;;;;;;4.26;71.68;100908.69;1813287;78;21369;-78
2021/03/20 11:46:32;;;;;;;26.02;17.40;;;;;;;4.25;71.23;100909.59;1812996;78;20907;-75
2021/03/20 11:49:40;;;;;;;28.57;18.12;;;;;;;4.21;70.44;100908.44;1812851;78;20963;-77
2021/03/20 11:52:18;;;;;;;25.48;15.68;;;;;;;4.20;70.78;100906.27;1812537;78;21287;-78
2021/03/20 11:54:46;;;;;;;18.95;14.25;;;;;;;4.17;70.97;100911.55;1812686;79;20977;-77
2021/03/20 11:57:29;;;;;;;20.15;14.83;;;;;;;4.12;71.32;100905.66;1812567;79;20935;-77
2021/03/20 11:59:58;;;;;;;21.00;17.00;;;;;;;4.03;71.75;100912.41;1812776;78;21081;-77
2021/03/20 12:02:32;;;;;;;25.25;16.07;;;;;;;3.95;72.08;100907.41;1788191;79;20970;-78
2021/03/20 12:05:20;;;;;;;26.17;16.42;;;;;;;3.93;72.36;100911.37;1793556;79;21576;-77
2021/03/20 12:07:48;;;;;;;25.10;17.05;;;;;;;3.88;72.56;100913.67;1812729;78;20888;-76
2021/03/20 12:10:23;;;;;;;27.30;17.80;;;;;;;3.83;72.86;100914.26;1767065;78;20913;-74
2021/03/20 12:12:55;;;;;;;22.30;17.37;;;;;;;3.81;72.95;100918.18;1812693;79;20998;-76
2021/03/20 12:15:35;;;;;;;22.42;15.43;;;;;;;3.83;73.01;100918.15;1793515;80;20985;-76
2021/03/20 12:18:17;;;;;;;19.55;14.93;;;;;;;3.79;73.12;100921.72;1812697;79;22193;-76